Time;durP1;ratioP1;P1;durP2;ratioP2;P2;SDS_P1;SDS_P2;PMS_P1;PMS_P2;Temp;Humidity;BMP_temperature;BMP_pressure;BME280_temperature;BME280_humidity;BME280_pressure;Samples;Min_cycle;Max_cycle;Signal;HPM_P1;HPM_P2
2023/08/06 00:00:35;;;;;;;13.27;6.63;;;;;;;14.82;100.00;100484.84;6100353;19;20023;-73
2023/08/06 00:02:40;;;;;;;13.73;7.00;;;;;;;14.88;100.00;100472.09;6099902;19;20003;-74
2023/08/06 00:04:45;;;;;;;15.65;6.88;;;;;;;14.83;100.00;100481.28;6102291;19;20006;-73
2023/08/06 00:06:53;;;;;;;13.73;7.70;;;;;;;14.87;100.00;100482.78;6096604;19;20554;-73
2023/08/06 00:08:58;;;;;;;15.10;7.55;;;;;;;14.88;100.00;100471.25;6091149;19;20017;-71
2023/08/06 00:11:03;;;;;;;14.43;7.05;;;;;;;14.89;100.00;100472.94;6098110;19;20034;-73
2023/08/06 00:13:08;;;;;;;12.90;7.05;;;;;;;14.84;100.00;100483.81;6100602;19;20011;-73
2023/08/06 00:15:14;;;;;;;14.43;6.78;;;;;;;14.81;100.00;100476.09;6098747;19;20010;-74
2023/08/06 00:17:19;;;;;;;14.82;7.35;;;;;;;14.78;100.00;100478.94;6099398;19;20018;-74
2023/08/06 00:19:24;;;;;;;13.80;7.63;;;;;;;14.81;100.00;100475.25;6099091;19;20018;-71
2023/08/06 00:21:29;;;;;;;12.98;6.65;;;;;;;14.84;100.00;100475.88;6100680;19;20002;-71
2023/08/06 00:23:37;;;;;;;13.68;7.25;;;;;;;14.90;100.00;100472.84;6103438;19;20007;-71
2023/08/06 00:25:42;;;;;;;15.23;7.35;;;;;;;14.89;100.00;100476.44;6098896;19;20082;-69
2023/08/06 00:27:44;;;;;;;14.90;8.25;;;;;;;14.86;100.00;100475.78;6102535;19;20018;-71
2023/08/06 00:29:49;;;;;;;13.07;7.38;;;;;;;14.84;100.00;100475.88;6101745;19;20006;-71
2023/08/06 00:31:55;;;;;;;13.85;7.65;;;;;;;14.88;100.00;100481.84;6101778;19;20011;-71
2023/08/06 00:34:00;;;;;;;16.50;7.63;;;;;;;14.85;100.00;100480.25;6101467;19;20017;-71
2023/08/06 00:36:05;;;;;;;13.45;7.00;;;;;;;14.84;100.00;100489.09;6099160;19;20038;-72
2023/08/06 00:38:10;;;;;;;14.73;7.68;;;;;;;14.87;100.00;100483.63;6098436;19;20555;-71
2023/08/06 00:40:17;;;;;;;12.75;7.45;;;;;;;14.86;100.00;100481.09;6098045;19;21318;-72
2023/08/06 00:42:23;;;;;;;15.57;7.97;;;;;;;14.87;100.00;100475.69;6101186;19;20028;-72
2023/08/06 00:44:28;;;;;;;14.00;7.25;;;;;;;14.91;100.00;100474.53;6100205;19;20006;-73
2023/08/06 00:46:35;;;;;;;14.60;7.38;;;;;;;14.90;100.00;100475.50;6097389;19;20002;-72
2023/08/06 00:48:40;;;;;;;12.02;6.93;;;;;;;14.86;100.00;100481.09;6092466;19;20067;-74
2023/08/06 00:50:45;;;;;;;12.57;7.70;;;;;;;14.87;100.00;100475.69;6100672;19;20740;-74
2023/08/06 00:52:51;;;;;;;14.93;7.68;;;;;;;14.86;100.00;100476.63;6094814;19;20011;-71
2023/08/06 00:54:56;;;;;;;15.55;7.35;;;;;;;14.86;100.00;100475.78;6097853;19;20647;-73
2023/08/06 00:57:03;;;;;;;15.07;7.75;;;;;;;14.84;100.00;100477.69;6096711;19;20486;-71
2023/08/06 00:59:08;;;;;;;13.35;8.23;;;;;;;14.87;100.00;100483.63;6097923;19;20015;-73
2023/08/06 01:01:13;;;;;;;12.63;6.95;;;;;;;14.85;100.00;100482.88;6097898;19;20038;-74
2023/08/06 01:03:19;;;;;;;15.18;7.30;;;;;;;14.85;100.00;100474.94;6098368;19;20014;-74
2023/08/06 01:05:24;;;;;;;12.38;6.90;;;;;;;14.84;100.00;100472.38;6099207;19;20103;-74
2023/08/06 01:07:43;;;;;;;12.32;6.78;;;;;;;14.87;100.00;100475.69;6099188;19;20011;-74
2023/08/06 01:10:00;;;;;;;13.02;6.75;;;;;;;14.88;100.00;100474.75;6098089;19;20018;-74
2023/08/06 01:12:18;;;;;;;12.75;7.10;;;;;;;14.91;100.00;100479.84;6097259;19;20006;-72
2023/08/06 01:14:28;;;;;;;14.32;7.03;;;;;;;14.87;100.00;100480.97;6098157;19;20010;-73
2023/08/06 01:16:35;;;;;;;15.52;8.10;;;;;;;14.87;100.00;100475.69;6096865;19;20231;-72
2023/08/06 01:18:41;;;;;;;13.05;6.82;;;;;;;14.84;100.00;100480.31;6102620;19;20066;-73
2023/08/06 01:20:46;;;;;;;15.65;7.10;;;;;;;14.83;100.00;100482.13;6097512;19;20014;-70
2023/08/06 01:22:51;;;;;;;14.88;7.13;;;;;;;14.85;100.00;100479.38;6100146;19;20022;-70
2023/08/06 01:25:00;;;;;;;13.73;7.25;;;;;;;14.82;100.00;100480.41;6098679;19;20003;-70
2023/08/06 01:27:11;;;;;;;13.55;7.38;;;;;;;14.83;100.00;100484.78;6098098;19;20038;-70
2023/08/06 01:29:21;;;;;;;15.45;8.02;;;;;;;14.86;100.00;100489.88;6097795;19;20214;-70
2023/08/06 01:31:30;;;;;;;15.75;7.65;;;;;;;14.86;100.00;100489.88;6094111;19;20025;-70
2023/08/06 01:33:37;;;;;;;12.85;6.93;;;;;;;14.87;100.00;100486.25;6094394;19;20807;-70
2023/08/06 01:35:44;;;;;;;15.50;7.95;;;;;;;14.87;100.00;100493.34;6099178;19;20034;-70
2023/08/06 01:37:53;;;;;;;13.48;7.57;;;;;;;14.79;100.00;100477.97;6096029;19;20038;-70
2023/08/06 01:39:57;;;;;;;15.65;8.20;;;;;;;14.82;100.00;100485.69;6098312;19;20003;-70
2023/08/06 01:42:02;;;;;;;13.30;7.88;;;;;;;14.81;100.00;100481.38;6087333;19;20015;-70
2023/08/06 01:44:09;;;;;;;15.90;7.70;;;;;;;14.82;100.00;100488.34;6095188;19;20352;-71
2023/08/06 01:46:14;;;;;;;15.32;7.63;;;;;;;14.78;100.00;100486.84;6091956;19;20858;-71
2023/08/06 01:48:19;;;;;;;13.75;7.80;;;;;;;14.75;100.00;100495.00;6095226;19;20058;-71
2023/08/06 01:50:24;;;;;;;14.57;7.05;;;;;;;14.76;100.00;100496.69;6093905;19;20026;-71
2023/08/06 01:52:31;;;;;;;13.98;7.63;;;;;;;14.80;100.00;100500.00;6089457;19;21308;-69
2023/08/06 01:54:38;;;;;;;14.48;7.63;;;;;;;14.83;100.00;100495.34;6087828;19;20010;-69
2023/08/06 01:56:44;;;;;;;12.57;6.90;;;;;;;14.85;100.00;100501.41;6086949;19;20466;-72
2023/08/06 01:58:49;;;;;;;15.00;7.72;;;;;;;14.86;100.00;100507.53;6088555;19;20446;-70
2023/08/06 02:00:54;;;;;;;12.63;7.60;;;;;;;14.75;100.00;100508.22;6086445;19;20018;-69
2023/08/06 02:02:59;;;;;;;15.13;8.45;;;;;;;14.75;100.00;100500.28;6087260;19;20372;-69
2023/08/06 02:05:04;;;;;;;16.35;8.13;;;;;;;14.71;100.00;100501.41;6087103;19;20006;-71
2023/08/06 02:07:09;;;;;;;14.73;8.27;;;;;;;14.69;100.00;100508.59;6086229;19;20014;-74
2023/08/06 02:09:14;;;;;;;14.55;7.90;;;;;;;14.72;100.00;100505.78;6080742;19;20006;-75
2023/08/06 02:11:22;;;;;;;17.77;8.05;;;;;;;14.73;100.00;100510.09;6089561;19;20043;-73
2023/08/06 02:13:24;;;;;;;13.55;7.63;;;;;;;14.66;100.00;100514.06;6087012;19;20086;-74
2023/08/06 02:15:29;;;;;;;14.88;8.27;;;;;;;14.60;100.00;100519.75;6086683;19;21552;-75
2023/08/06 02:17:31;;;;;;;18.33;8.20;;;;;;;14.61;100.00;100511.75;6090167;19;20017;-73
2023/08/06 02:19:37;;;;;;;14.68;7.95;;;;;;;14.62;100.00;100509.94;6089178;19;20009;-73
2023/08/06 02:21:43;;;;;;;17.27;9.45;;;;;;;14.62;100.00;100512.59;6091204;19;20003;-72
2023/08/06 02:23:48;;;;;;;15.50;8.45;;;;;;;14.58;100.00;100511.06;6091115;19;20007;-72
2023/08/06 02:25:59;;;;;;;14.02;7.45;;;;;;;14.53;100.00;100524.56;6089756;19;19999;-73
2023/08/06 02:28:07;;;;;;;17.13;8.25;;;;;;;14.51;100.00;100515.88;6083993;19;20066;-72
2023/08/06 02:30:12;;;;;;;13.43;7.60;;;;;;;14.57;100.00;100514.66;6083972;19;20010;-73
2023/08/06 02:32:17;;;;;;;12.52;6.90;;;;;;;14.54;100.00;100512.22;6085579;19;20022;-72
2023/08/06 02:34:22;;;;;;;15.30;7.57;;;;;;;14.55;100.00;100511.25;6086316;19;20014;-74
2023/08/06 02:36:29;;;;;;;12.77;6.47;;;;;;;14.52;100.00;100516.72;6083397;19;20017;-72
2023/08/06 02:38:32;;;;;;;12.10;6.47;;;;;;;14.47;100.00;100517.84;6088784;19;20458;-71
2023/08/06 02:40:36;;;;;;;12.38;6.35;;;;;;;14.50;100.00;100527.38;6087948;19;20010;-73
2023/08/06 02:42:42;;;;;;;9.85;4.93;;;;;;;14.45;100.00;100525.00;6090319;19;20017;-74
2023/08/06 02:44:47;;;;;;;11.10;5.32;;;;;;;14.43;100.00;100526.91;6090322;19;20003;-72
2023/08/06 02:46:52;;;;;;;9.75;4.65;;;;;;;14.41;100.00;100520.03;6086844;19;20044;-71
2023/08/06 02:48:58;;;;;;;8.73;4.03;;;;;;;14.45;100.00;100527.66;6084839;19;20606;-71
2023/08/06 02:51:02;;;;;;;9.15;4.22;;;;;;;14.46;100.00;100526.72;6085738;19;20015;-70
2023/08/06 02:53:05;;;;;;;7.03;3.28;;;;;;;14.43;100.00;100529.56;6089607;19;20014;-72
2023/08/06 02:55:11;;;;;;;7.13;3.95;;;;;;;14.42;100.00;100529.63;6084863;19;20007;-69
2023/08/06 02:57:16;;;;;;;8.52;3.80;;;;;;;14.44;100.00;100528.59;6086475;19;20030;-69
2023/08/06 02:59:19;;;;;;;6.18;3.33;;;;;;;14.43;100.00;100524.28;6089575;19;20223;-70
2023/08/06 03:01:26;;;;;;;8.10;3.72;;;;;;;14.40;100.00;100529.75;6089713;19;20139;-70
2023/08/06 03:03:29;;;;;;;3.53;1.83;;;;;;;14.37;100.00;100539.66;6086582;19;20038;-69
2023/08/06 03:05:34;;;;;;;4.15;2.30;;;;;;;14.40;100.00;100536.81;6082438;19;20010;-69
2023/08/06 03:07:39;;;;;;;1.67;1.17;;;;;;;14.31;100.00;100543.50;6085909;19;20012;-70
2023/08/06 03:09:44;;;;;;;2.45;1.50;;;;;;;14.27;100.00;100552.59;6083982;19;20058;-71
2023/08/06 03:11:49;;;;;;;2.78;1.67;;;;;;;14.13;100.00;100539.34;6083053;19;20349;-70
2023/08/06 03:13:55;;;;;;;2.58;1.42;;;;;;;14.15;100.00;100540.94;6089816;19;20441;-69
2023/08/06 03:16:01;;;;;;;3.10;1.27;;;;;;;14.12;100.00;100533.22;6083764;19;20007;-70
2023/08/06 03:18:09;;;;;;;2.00;1.30;;;;;;;14.05;100.00;100539.81;6093935;19;21021;-70
2023/08/06 03:20:14;;;;;;;3.40;1.98;;;;;;;13.99;100.00;100535.72;6094703;19;20052;-70
2023/08/06 03:22:17;;;;;;;3.08;1.98;;;;;;;13.98;100.00;100536.69;6090181;19;20509;-71
2023/08/06 03:24:25;;;;;;;2.92;1.73;;;;;;;14.03;100.00;100542.56;6092127;19;20704;-70
2023/08/06 03:26:30;;;;;;;4.30;2.20;;;;;;;14.00;100.00;100540.06;6094278;19;20046;-68
2023/08/06 03:28:35;;;;;;;3.08;2.13;;;;;;;14.02;100.00;100542.63;6092792;19;20088;-68
2023/08/06 03:30:38;;;;;;;4.97;2.75;;;;;;;14.04;100.00;100543.41;6095483;19;20010;-68
2023/08/06 03:32:43;;;;;;;5.70;2.60;;;;;;;13.99;100.00;100546.31;6092341;19;20038;-70
2023/08/06 03:34:51;;;;;;;8.18;3.40;;;;;;;13.98;100.00;100534.06;6091218;19;20014;-69
2023/08/06 03:36:57;;;;;;;8.02;3.92;;;;;;;14.00;100.00;100542.72;6090907;19;20126;-70
2023/08/06 03:38:59;;;;;;;7.18;4.13;;;;;;;13.99;100.00;100550.75;6091603;19;20077;-67
2023/08/06 03:41:04;;;;;;;9.70;5.07;;;;;;;14.00;100.00;100558.56;6091931;19;20087;-70
2023/08/06 03:43:09;;;;;;;12.45;5.60;;;;;;;14.01;100.00;100562.06;6095788;19;20006;-70
2023/08/06 03:45:14;;;;;;;13.20;6.10;;;;;;;14.02;100.00;100561.97;6092295;19;20404;-70
2023/08/06 03:47:19;;;;;;;10.35;5.43;;;;;;;14.01;100.00;100560.28;6091197;19;20090;-70
2023/08/06 03:49:24;;;;;;;12.32;5.78;;;;;;;14.04;100.00;100562.72;6089804;19;20010;-70
2023/08/06 03:51:32;;;;;;;15.57;6.57;;;;;;;14.04;100.00;100567.19;6093226;19;20297;-70
2023/08/06 03:53:37;;;;;;;13.05;7.20;;;;;;;14.03;100.00;100562.81;6092752;19;20014;-70
2023/08/06 03:55:42;;;;;;;13.32;6.32;;;;;;;14.02;100.00;100563.75;6088997;19;20006;-70
2023/08/06 03:57:47;;;;;;;14.98;7.40;;;;;;;14.01;100.00;100576.13;6095580;19;20018;-70
2023/08/06 03:59:52;;;;;;;16.63;7.57;;;;;;;13.99;100.00;100570.06;6092845;19;20046;-73
2023/08/06 04:01:59;;;;;;;13.32;6.63;;;;;;;13.97;100.00;100573.75;6090776;19;20010;-73
2023/08/06 04:04:04;;;;;;;11.40;5.75;;;;;;;13.90;100.00;100570.63;6091491;19;20030;-71
2023/08/06 04:06:10;;;;;;;9.93;4.85;;;;;;;13.77;100.00;100575.78;6086211;19;20098;-72
2023/08/06 04:08:17;;;;;;;11.20;4.80;;;;;;;13.73;100.00;100576.88;6091809;19;20418;-74
2023/08/06 04:10:22;;;;;;;9.48;4.38;;;;;;;13.70;100.00;100584.16;6094339;19;20014;-72
2023/08/06 04:12:25;;;;;;;9.02;3.88;;;;;;;13.60;100.00;100581.16;6094763;19;20010;-71
2023/08/06 04:14:30;;;;;;;;;;;;;;;13.57;100.00;100587.47;6092413;19;20431;-69
2023/08/06 04:16:35;;;;;;;8.55;4.72;;;;;;;13.52;100.00;100586.03;6093198;19;19914;-69
2023/08/06 04:18:41;;;;;;;8.63;3.80;;;;;;;13.47;100.00;100585.44;6091865;19;20014;-69
2023/08/06 04:20:49;;;;;;;9.73;3.97;;;;;;;13.45;100.00;100582.88;6092444;19;20007;-69
2023/08/06 04:22:59;;;;;;;7.32;3.72;;;;;;;13.38;100.00;100586.81;6087212;19;20032;-69
2023/08/06 04:25:08;;;;;;;8.45;4.15;;;;;;;13.36;100.00;100593.97;6087086;19;20427;-69
2023/08/06 04:27:14;;;;;;;7.32;4.00;;;;;;;13.34;100.00;100593.19;6085956;19;20002;-70
2023/08/06 04:29:20;;;;;;;8.07;3.88;;;;;;;13.33;100.00;100588.88;6090559;19;21011;-70
2023/08/06 04:31:26;;;;;;;7.40;3.90;;;;;;;13.31;100.00;100599.50;6089781;19;20574;-69
2023/08/06 04:33:28;;;;;;;10.52;3.95;;;;;;;13.32;100.00;100601.22;6090698;19;20011;-69
2023/08/06 04:35:33;;;;;;;8.15;3.95;;;;;;;13.33;100.00;100596.78;6088624;19;20014;-69
2023/08/06 04:37:36;;;;;;;8.02;4.07;;;;;;;13.34;100.00;100604.59;6091991;19;20014;-69
2023/08/06 04:39:42;;;;;;;10.63;4.93;;;;;;;13.36;100.00;100609.81;6091573;19;20059;-73
2023/08/06 04:41:50;;;;;;;9.25;3.97;;;;;;;13.35;100.00;100613.41;6090741;19;20048;-70
2023/08/06 04:43:55;;;;;;;9.27;3.95;;;;;;;13.35;100.00;100608.13;6092095;19;20456;-69
2023/08/06 04:46:00;;;;;;;8.82;3.78;;;;;;;13.39;100.00;100620.19;6094563;19;20350;-69
2023/08/06 04:48:06;;;;;;;9.40;4.10;;;;;;;13.43;100.00;100619.09;6094923;19;20018;-70
2023/08/06 04:50:09;;;;;;;10.20;4.85;;;;;;;13.41;100.00;100620.13;6091640;19;20002;-68
2023/08/06 04:52:14;;;;;;;7.25;3.65;;;;;;;13.39;100.00;100622.81;6092519;19;20036;-68
2023/08/06 04:54:21;;;;;;;9.73;4.63;;;;;;;13.43;100.00;100626.13;6087198;19;20062;-68
2023/08/06 04:56:26;;;;;;;14.10;4.45;;;;;;;13.42;100.00;100627.09;6090959;19;20007;-69
2023/08/06 04:58:37;;;;;;;13.63;5.07;;;;;;;13.45;100.00;100625.13;6087391;19;20032;-69
2023/08/06 05:00:44;;;;;;;9.37;4.43;;;;;;;13.48;100.00;100634.66;6090079;19;20019;-69
2023/08/06 05:02:49;;;;;;;12.07;5.75;;;;;;;13.48;100.00;100629.38;6092222;19;20263;-69
2023/08/06 05:04:54;;;;;;;11.13;5.75;;;;;;;13.50;100.00;100638.91;6087208;19;20114;-73
2023/08/06 05:07:00;;;;;;;11.00;5.63;;;;;;;13.52;100.00;100639.69;6088237;19;20488;-71
2023/08/06 05:09:08;;;;;;;10.50;5.05;;;;;;;13.55;100.00;100638.66;6090323;19;20458;-72
2023/08/06 05:11:13;;;;;;;11.80;5.15;;;;;;;13.57;100.00;100645.56;6085367;19;20479;-71
2023/08/06 05:13:18;;;;;;;10.50;5.20;;;;;;;13.64;100.00;100647.84;6090649;19;20018;-72
2023/08/06 05:15:27;;;;;;;10.25;5.38;;;;;;;13.66;100.00;100652.09;6088267;19;20380;-73
2023/08/06 05:17:35;;;;;;;11.30;5.68;;;;;;;13.72;100.00;100659.69;6092449;19;20076;-72
2023/08/06 05:19:40;;;;;;;8.80;4.70;;;;;;;13.76;100.00;100655.94;6090463;19;20013;-73
2023/08/06 05:21:48;;;;;;;13.60;5.53;;;;;;;13.80;100.00;100654.84;6085449;19;20531;-72
2023/08/06 05:23:53;;;;;;;10.95;4.60;;;;;;;13.83;100.00;100667.00;6090786;19;20078;-72
2023/08/06 05:25:58;;;;;;;11.52;4.85;;;;;;;13.89;100.00;100665.81;6089596;19;20015;-73
2023/08/06 05:28:04;;;;;;;8.70;4.50;;;;;;;13.89;100.00;100671.09;6088218;19;20010;-72
2023/08/06 05:30:08;;;;;;;10.75;5.10;;;;;;;13.88;100.00;100669.41;6083302;19;20014;-72
2023/08/06 05:32:16;;;;;;;7.90;4.63;;;;;;;13.91;100.00;100671.88;6086040;19;20054;-73
2023/08/06 05:34:30;;;;;;;9.57;4.68;;;;;;;13.94;100.00;100676.97;6079344;19;20011;-73
2023/08/06 05:36:35;;;;;;;10.65;4.75;;;;;;;13.97;100.00;100679.44;6089088;19;20077;-72
2023/08/06 05:38:40;;;;;;;14.25;5.38;;;;;;;13.96;100.00;100681.22;6079541;19;20582;-72
2023/08/06 05:40:53;;;;;;;12.88;5.97;;;;;;;13.98;100.00;100687.28;6058564;19;20006;-73
2023/08/06 05:43:00;;;;;;;9.98;5.03;;;;;;;13.98;100.00;100684.63;6071046;19;21009;-71
2023/08/06 05:45:05;;;;;;;13.43;5.53;;;;;;;13.97;100.00;100697.91;6060796;19;20033;-72
2023/08/06 05:47:30;;;;;;;8.45;3.88;;;;;;;13.97;100.00;100697.91;6081501;19;20546;-73
2023/08/06 05:49:50;;;;;;;8.05;3.95;;;;;;;13.94;100.00;100698.94;6068026;19;20014;-72
2023/08/06 05:51:56;;;;;;;11.15;4.15;;;;;;;13.93;100.00;100696.38;6083916;19;20006;-73
2023/08/06 05:54:01;;;;;;;13.05;4.28;;;;;;;13.89;100.00;100701.00;6088360;19;20607;-72
2023/08/06 05:56:21;;;;;;;10.02;3.55;;;;;;;13.91;100.00;100700.91;6093535;19;20018;-74
2023/08/06 05:58:29;;;;;;;10.00;3.72;;;;;;;13.92;100.00;100698.16;6083053;19;20543;-70
2023/08/06 06:00:35;;;;;;;7.53;3.63;;;;;;;13.93;100.00;100701.66;6075874;19;20014;-73
2023/08/06 06:02:39;;;;;;;9.23;3.13;;;;;;;13.96;100.00;100699.72;6092544;19;20549;-75
2023/08/06 06:04:53;;;;;;;6.45;2.85;;;;;;;13.99;100.00;100709.25;6087616;19;20023;-73
2023/08/06 06:07:03;;;;;;;10.23;3.10;;;;;;;14.06;100.00;100707.97;6085797;19;20027;-72
2023/08/06 06:09:08;;;;;;;8.43;2.95;;;;;;;14.10;100.00;100711.28;6089109;19;21068;-70
2023/08/06 06:11:13;;;;;;;8.15;2.55;;;;;;;14.14;100.00;100718.09;6082642;19;20048;-69
2023/08/06 06:13:19;;;;;;;4.93;2.50;;;;;;;14.15;100.00;100718.00;6088917;19;20031;-69
2023/08/06 06:15:24;;;;;;;7.60;2.53;;;;;;;14.18;100.00;100717.81;6082757;19;20676;-70
2023/08/06 06:17:29;;;;;;;3.95;2.20;;;;;;;14.22;100.00;100715.88;6092313;19;20015;-68
2023/08/06 06:19:34;;;;;;;8.80;2.35;;;;;;;14.27;100.00;100724.41;6097124;19;20090;-69
2023/08/06 06:21:45;;;;;;;4.70;1.95;;;;;;;14.27;100.00;100725.25;6095963;19;20009;-69
2023/08/06 06:23:53;;;;;;;6.00;2.15;;;;;;;14.31;100.00;100731.19;6093204;19;20003;-69
2023/08/06 06:25:59;;;;;;;4.15;1.85;;;;;;;14.36;100.00;100728.28;6088533;19;20007;-69
2023/08/06 06:28:10;;;;;;;2.80;1.60;;;;;;;14.39;100.00;100731.59;6089862;19;20002;-68
2023/08/06 06:30:15;;;;;;;4.32;1.90;;;;;;;14.42;100.00;100728.75;6093004;19;20015;-70
2023/08/06 06:32:22;;;;;;;7.78;1.95;;;;;;;14.44;100.00;100729.53;6090894;19;20014;-71
2023/08/06 06:34:30;;;;;;;5.15;1.52;;;;;;;14.53;100.00;100727.31;6093578;19;20007;-71
2023/08/06 06:36:45;;;;;;;5.25;1.80;;;;;;;14.48;100.00;100727.56;6088461;19;20022;-70
2023/08/06 06:38:55;;;;;;;6.13;1.85;;;;;;;14.50;100.00;100737.09;6085617;19;20086;-69
2023/08/06 06:41:08;;;;;;;5.13;2.25;;;;;;;14.59;100.00;100740.22;6082933;19;20438;-69
2023/08/06 06:43:13;;;;;;;5.32;1.92;;;;;;;14.64;100.00;100743.41;6090137;19;20078;-69
2023/08/06 06:45:18;;;;;;;3.55;2.25;;;;;;;14.62;100.00;100737.38;6088123;19;20015;-69
2023/08/06 06:47:26;;;;;;;4.65;1.95;;;;;;;14.60;100.00;100747.19;6090336;19;20007;-69
2023/08/06 06:49:34;;;;;;;5.10;2.00;;;;;;;14.62;100.00;100745.31;6093022;19;20022;-69
2023/08/06 06:51:47;;;;;;;4.32;2.00;;;;;;;14.74;100.00;100743.72;6068456;19;20384;-72
2023/08/06 06:53:55;;;;;;;3.03;1.67;;;;;;;14.67;100.00;100748.53;6087415;19;20090;-70
2023/08/06 06:56:06;;;;;;;6.43;1.90;;;;;;;14.66;100.00;100752.94;6089989;19;20046;-70
2023/08/06 06:58:11;;;;;;;6.15;2.13;;;;;;;14.68;100.00;100751.06;6092510;19;20081;-70
2023/08/06 07:00:20;;;;;;;5.47;1.90;;;;;;;14.68;100.00;100753.72;6091509;19;20042;-70
2023/08/06 07:02:29;;;;;;;4.63;1.80;;;;;;;14.69;100.00;100757.22;6090452;19;20028;-71
2023/08/06 07:04:37;;;;;;;7.05;1.90;;;;;;;14.78;100.00;100761.13;6094874;19;20007;-70
2023/08/06 07:06:51;;;;;;;4.53;2.10;;;;;;;14.84;100.00;100761.59;6085756;19;20351;-71
2023/08/06 07:08:58;;;;;;;6.32;2.05;;;;;;;14.85;100.00;100758.03;6085030;19;20011;-69
2023/08/06 07:11:09;;;;;;;5.30;2.25;;;;;;;14.97;100.00;100758.22;6087564;19;20041;-71
2023/08/06 07:13:17;;;;;;;9.10;2.40;;;;;;;14.98;100.00;100760.78;6093286;19;20035;-70
2023/08/06 07:15:22;;;;;;;7.07;2.85;;;;;;;14.96;100.00;100762.66;6089910;19;20006;-70
2023/08/06 07:17:38;;;;;;;;;;;;;;;;;;;;;
2023/08/06 07:19:49;;;;;;;6.97;2.88;;;;;;;14.95;100.00;100768.88;6076520;19;20581;-70
2023/08/06 07:21:59;;;;;;;10.02;3.30;;;;;;;14.97;100.00;100771.44;6094201;19;20014;-69
2023/08/06 07:24:05;;;;;;;5.10;2.42;;;;;;;14.93;100.00;100774.28;6104404;19;20046;-72
2023/08/06 07:26:10;;;;;;;6.15;2.30;;;;;;;15.00;100.00;100781.84;6102029;19;20011;-71
2023/08/06 07:28:15;;;;;;;4.50;2.35;;;;;;;15.05;100.00;100783.28;6101679;19;20010;-70
2023/08/06 07:30:21;;;;;;;6.63;2.53;;;;;;;15.03;100.00;100781.66;6101420;19;20523;-70
2023/08/06 07:32:27;;;;;;;6.13;2.50;;;;;;;15.04;100.00;100781.59;6102622;19;20314;-70
2023/08/06 07:34:32;;;;;;;9.35;2.45;;;;;;;15.14;100.00;100777.44;6103041;19;20034;-70
2023/08/06 07:36:42;;;;;;;8.20;3.13;;;;;;;15.06;100.00;100781.47;6102528;19;20423;-70
2023/08/06 07:38:56;;;;;;;6.90;2.85;;;;;;;15.13;100.00;100791.59;6099861;19;20038;-70
2023/08/06 07:41:05;;;;;;;5.80;2.35;;;;;;;15.00;98.20;100787.16;6098592;19;20388;-70
2023/08/06 07:43:10;;;;;;;7.32;2.50;;;;;;;15.10;98.65;100788.28;6099558;19;20011;-70
2023/08/06 07:45:19;;;;;;;5.30;2.58;;;;;;;15.10;97.89;100788.28;6106815;19;20090;-70
2023/08/06 07:47:24;;;;;;;7.03;2.60;;;;;;;15.11;98.69;100788.22;6107316;19;20015;-71
2023/08/06 07:49:30;;;;;;;5.15;2.33;;;;;;;15.08;94.87;100788.38;6104693;19;20084;-70
2023/08/06 07:51:35;;;;;;;5.40;2.58;;;;;;;15.12;94.13;100789.06;6099599;19;20015;-70
2023/08/06 07:53:40;;;;;;;6.75;2.10;;;;;;;15.18;94.05;100788.69;6098736;19;20068;-70
2023/08/06 07:55:53;;;;;;;5.70;2.10;;;;;;;15.31;95.39;100779.03;6100592;19;20006;-69
2023/08/06 07:58:00;;;;;;;4.35;1.90;;;;;;;15.35;93.53;100785.03;6100342;19;19999;-69
2023/08/06 08:00:03;;;;;;;4.90;2.08;;;;;;;15.29;92.04;100783.56;6097521;19;20507;-69
2023/08/06 08:02:08;;;;;;;5.25;2.33;;;;;;;15.30;92.63;100787.09;6098903;19;20003;-70
2023/08/06 08:04:13;;;;;;;6.40;2.65;;;;;;;15.31;92.56;100787.00;6100896;19;20030;-70
2023/08/06 08:06:18;;;;;;;4.53;2.10;;;;;;;15.35;93.00;100793.81;6100170;19;20010;-69
2023/08/06 08:08:23;;;;;;;5.40;2.05;;;;;;;15.45;93.70;100790.59;6096559;19;20054;-70
2023/08/06 08:10:29;;;;;;;5.93;2.33;;;;;;;15.51;92.46;100793.72;6097959;19;20006;-73
2023/08/06 08:12:36;;;;;;;6.65;2.30;;;;;;;15.41;92.13;100792.59;6103711;19;20179;-70
2023/08/06 08:14:45;;;;;;;6.90;2.67;;;;;;;15.44;92.18;100791.53;6095132;19;20418;-71
2023/08/06 08:16:51;;;;;;;6.65;2.15;;;;;;;15.56;93.40;100796.06;6099591;19;20337;-70
2023/08/06 08:18:56;;;;;;;6.97;2.28;;;;;;;15.53;92.49;100794.50;6095182;19;20010;-70
2023/08/06 08:21:04;;;;;;;5.07;2.00;;;;;;;15.64;91.25;100795.59;6098305;19;20706;-69
2023/08/06 08:23:09;;;;;;;8.52;2.70;;;;;;;15.64;92.46;100799.13;6100148;19;20023;-70
2023/08/06 08:25:14;;;;;;;6.15;2.22;;;;;;;15.63;89.42;100793.91;6098278;19;20101;-69
2023/08/06 08:27:19;;;;;;;3.17;1.70;;;;;;;15.63;90.67;100794.75;6100008;19;20015;-72
2023/08/06 08:29:27;;;;;;;5.55;2.50;;;;;;;15.76;91.99;100801.00;6097794;19;20018;-73
2023/08/06 08:31:39;;;;;;;3.75;2.15;;;;;;;15.72;89.11;100796.88;6103564;19;20499;-68
2023/08/06 08:33:44;;;;;;;6.20;2.30;;;;;;;15.66;90.96;100804.28;6106715;19;20474;-68
2023/08/06 08:35:52;;;;;;;6.18;2.65;;;;;;;15.64;90.14;100808.84;6103945;19;20258;-69
2023/08/06 08:37:57;;;;;;;4.90;2.45;;;;;;;15.67;89.92;100808.66;6104005;19;20366;-68
2023/08/06 08:40:03;;;;;;;4.90;1.95;;;;;;;15.70;89.19;100817.28;6098480;19;20639;-69
2023/08/06 08:42:09;;;;;;;5.43;2.60;;;;;;;15.72;89.27;100818.06;6104067;19;20014;-71
2023/08/06 08:44:18;;;;;;;4.07;1.85;;;;;;;15.75;88.07;100817.88;6098344;19;20462;-69
2023/08/06 08:46:28;;;;;;;4.18;1.95;;;;;;;15.90;87.85;100815.19;6096965;19;20007;-68
2023/08/06 08:48:39;;;;;;;3.10;1.58;;;;;;;15.82;86.62;100812.16;6097395;19;20010;-73
2023/08/06 08:50:47;;;;;;;5.07;2.05;;;;;;;15.82;86.15;100810.38;6099907;19;20455;-68
2023/08/06 08:52:53;;;;;;;6.18;2.25;;;;;;;15.87;84.91;100818.03;6100529;19;20519;-69
2023/08/06 08:54:59;;;;;;;6.50;2.15;;;;;;;16.01;86.91;100813.56;6100202;19;20011;-73
2023/08/06 08:57:04;;;;;;;7.95;2.05;;;;;;;16.04;85.69;100814.34;6097362;19;20098;-69
2023/08/06 08:59:09;;;;;;;4.03;1.73;;;;;;;16.06;83.56;100821.25;6101173;19;20011;-73
2023/08/06 09:01:15;;;;;;;5.57;1.90;;;;;;;15.99;83.62;100820.75;6102425;19;20003;-69
2023/08/06 09:03:23;;;;;;;4.57;1.90;;;;;;;16.26;85.06;100822.59;6104355;19;20010;-69
2023/08/06 09:05:32;;;;;;;3.03;1.80;;;;;;;16.28;83.66;100827.81;6100301;19;20037;-70
2023/08/06 09:07:41;;;;;;;5.55;2.50;;;;;;;16.22;83.97;100829.91;6104679;19;20035;-70
2023/08/06 09:09:49;;;;;;;3.17;1.70;;;;;;;16.30;81.79;100832.06;6098647;19;20546;-68
2023/08/06 09:11:55;;;;;;;4.30;2.20;;;;;;;16.46;80.41;100831.91;6104069;19;20010;-68
2023/08/06 09:14:02;;;;;;;4.88;2.40;;;;;;;17.20;78.93;100829.69;6097666;19;20534;-69
2023/08/06 09:16:08;;;;;;;3.95;2.10;;;;;;;17.47;76.97;100835.75;6100536;19;20014;-69
2023/08/06 09:18:14;;;;;;;4.70;2.10;;;;;;;17.53;75.71;100827.34;6100143;19;20003;-74
2023/08/06 09:20:22;;;;;;;3.83;2.05;;;;;;;17.26;76.67;100830.09;6103862;19;20028;-70
2023/08/06 09:22:35;;;;;;;5.35;1.83;;;;;;;17.57;76.57;100822.66;6104116;19;20114;-71
2023/08/06 09:24:42;;;;;;;3.45;1.65;;;;;;;17.51;76.67;100826.63;6102078;19;20024;-73
2023/08/06 09:26:47;;;;;;;5.00;1.90;;;;;;;17.25;78.03;100830.22;6100787;19;20002;-74
2023/08/06 09:28:55;;;;;;;3.33;2.00;;;;;;;17.03;76.90;100828.16;6100237;19;20117;-74
2023/08/06 09:31:02;;;;;;;2.72;1.33;;;;;;;16.89;78.05;100839.72;6093594;19;20011;-69
2023/08/06 09:33:15;;;;;;;4.40;1.92;;;;;;;16.84;78.52;100844.47;6101164;19;20034;-70
2023/08/06 09:35:24;;;;;;;3.72;1.88;;;;;;;17.09;78.82;100841.88;6100255;19;20519;-76
2023/08/06 09:37:38;;;;;;;3.67;1.80;;;;;;;17.21;75.25;100848.16;6100268;19;20006;-70
2023/08/06 09:39:43;;;;;;;2.53;1.40;;;;;;;17.17;74.06;100846.69;6099659;19;20019;-74
2023/08/06 09:41:50;;;;;;;2.92;1.42;;;;;;;17.18;77.20;100847.53;6088487;19;20020;-70